Pagrindinis puslapis
METAR-TAF:

METAR-TAF

Oro uostai :

Camp Mabry

Ostinas, Teksasas, Jungtinės Amerikos Valstijos

platuma: 30-19N, ilguma: 097-46W, Aukštis: 200 m

Dabartinis oras

Ataskaita buvo paskelbta 41 minutes, ne 06:51 UTC
Ramus vėjas
Temperatūra 17°C
Drėgmė 82%
Slėgis 1013 hPa
Matomumas: 16.1 km
Giedras dangus

METAR: KATT 270651Z AUTO 00000KT 10SM CLR 17/14 A2992 RMK AO2 SLP124 T01720144

Laikas: 02:32 (07:32 UTC)


TAF: trūkstamas

Orai ataskaitas ir orų prognozės (METAR, TAF).

turimą stotys yra geltonos ir raudonos taškus žemėlapyje.

Perkelti pele per norėdami pamatyti stoties vardą.

Tada spustelėkite, norėdami matyti oro stebėjimo ir prognozės.

Norėdami pakeisti žemėlapį: spustelėkite ant žalios mygtukų su juodo kryžiaus žemyn,; žalią mygtuką su brūkšneliu, jei norite nutolinti; arba žalių rodyklių gretimoms žemėlapius.


METAR-TAF: